Time;durP1;ratioP1;P1;durP2;ratioP2;P2;SDS_P1;SDS_P2;PMS_P1;PMS_P2;Temp;Humidity;BMP_temperature;BMP_pressure;BME280_temperature;BME280_humidity;BME280_pressure;Samples;Min_cycle;Max_cycle;Signal;HPM_P1;HPM_P2
2022/01/16 00:00:28;;;;;;;25.25;10.25;;;;;;;;;;5031372;28;20116;-86
2022/01/16 00:05:21;;;;;;;24.25;8.85;;;;;;;;;;5070632;27;20029;-86
2022/01/16 00:07:48;;;;;;;25.80;9.30;;;;;;;;;;5034785;27;20061;-86
2022/01/16 00:10:17;;;;;;;22.25;8.65;;;;;;;;;;5031896;27;20022;-86
2022/01/16 00:12:47;;;;;;;17.25;8.13;;;;;;;;;;5050138;27;20039;-86
2022/01/16 00:15:14;;;;;;;15.68;7.10;;;;;;;;;;5072291;27;20495;-86
2022/01/16 00:17:52;;;;;;;16.92;7.15;;;;;;;;;;5035548;27;20018;-87
2022/01/16 00:20:19;;;;;;;18.67;6.43;;;;;;;;;;5101241;27;20027;-86
2022/01/16 00:22:48;;;;;;;19.00;7.05;;;;;;;;;;5094251;27;20027;-87
2022/01/16 00:25:15;;;;;;;15.32;5.75;;;;;;;;;;5057370;27;20038;-86
2022/01/16 00:27:42;;;;;;;12.02;5.05;;;;;;;;;;5095172;27;20025;-87
2022/01/16 00:30:09;;;;;;;14.57;6.20;;;;;;;;;;5069750;27;20507;-86
2022/01/16 00:32:35;;;;;;;11.75;4.90;;;;;;;;;;5035382;28;20404;-86
2022/01/16 00:35:01;;;;;;;12.15;4.45;;;;;;;;;;5099664;27;20027;-86
2022/01/16 00:37:28;;;;;;;11.20;4.80;;;;;;;;;;5118527;27;20023;-86
2022/01/16 00:39:54;;;;;;;14.43;5.20;;;;;;;;;;5135219;27;20022;-86
2022/01/16 00:42:20;;;;;;;11.20;4.63;;;;;;;;;;5135254;27;20469;-86
2022/01/16 00:44:46;;;;;;;11.75;5.63;;;;;;;;;;5133996;27;20027;-87
2022/01/16 00:47:13;;;;;;;12.98;5.40;;;;;;;;;;5132676;27;20022;-87
2022/01/16 00:49:41;;;;;;;14.07;5.70;;;;;;;;;;5103386;27;20025;-86
2022/01/16 00:52:10;;;;;;;12.73;5.30;;;;;;;;;;5082725;27;20026;-87
2022/01/16 00:54:36;;;;;;;11.23;5.03;;;;;;;;;;5116871;27;20497;-86
2022/01/16 00:57:03;;;;;;;10.32;4.93;;;;;;;;;;5048214;27;20037;-87
2022/01/16 00:59:29;;;;;;;10.95;4.95;;;;;;;;;;5134826;27;20048;-86
2022/01/16 01:01:56;;;;;;;13.38;4.57;;;;;;;;;;5052885;27;20026;-86
2022/01/16 01:04:22;;;;;;;9.52;3.70;;;;;;;;;;5080305;27;20029;-86
2022/01/16 01:06:50;;;;;;;9.75;4.03;;;;;;;;;;5032459;27;20083;-87
2022/01/16 01:09:17;;;;;;;9.95;4.07;;;;;;;;;;5133465;27;20106;-87
2022/01/16 01:11:45;;;;;;;9.27;3.88;;;;;;;;;;5134595;27;20465;-86
2022/01/16 01:17:03;;;;;;;9.20;3.90;;;;;;;;;;5071252;27;20387;-87
2022/01/16 01:19:34;;;;;;;10.43;3.83;;;;;;;;;;5078079;27;20033;-87
2022/01/16 01:22:02;;;;;;;10.27;4.93;;;;;;;;;;5032554;28;20025;-86
2022/01/16 01:24:30;;;;;;;15.95;5.15;;;;;;;;;;5040794;27;20026;-86
2022/01/16 01:27:06;;;;;;;12.02;4.97;;;;;;;;;;5032419;27;20166;-87
2022/01/16 01:29:32;;;;;;;12.55;5.13;;;;;;;;;;5031119;28;20022;-86
2022/01/16 01:31:59;;;;;;;11.13;4.85;;;;;;;;;;5030625;28;20054;-88
2022/01/16 01:34:25;;;;;;;13.18;5.70;;;;;;;;;;5080063;27;20187;-86
2022/01/16 01:36:51;;;;;;;13.02;5.13;;;;;;;;;;5129504;27;20439;-86
2022/01/16 01:39:19;;;;;;;21.45;9.93;;;;;;;;;;5062966;27;20025;-85
2022/01/16 01:41:47;;;;;;;23.35;10.70;;;;;;;;;;5070936;27;20410;-87
2022/01/16 01:52:27;;;;;;;15.45;6.60;;;;;;;;;;5085105;28;20447;-87
2022/01/16 01:54:54;;;;;;;15.25;6.53;;;;;;;;;;5048679;28;20025;-87
2022/01/16 01:57:20;;;;;;;17.30;5.53;;;;;;;;;;5076434;28;20018;-86
2022/01/16 01:59:46;;;;;;;13.43;6.60;;;;;;;;;;5051033;28;20029;-86
2022/01/16 02:02:13;;;;;;;10.35;4.75;;;;;;;;;;5029664;28;20052;-86
2022/01/16 02:04:39;;;;;;;11.20;4.72;;;;;;;;;;5018702;28;20037;-86
2022/01/16 02:07:05;;;;;;;9.30;3.70;;;;;;;;;;5032182;28;20021;-86
2022/01/16 02:09:32;;;;;;;9.98;3.75;;;;;;;;;;5060462;28;20022;-86
2022/01/16 02:11:59;;;;;;;9.60;3.72;;;;;;;;;;5029797;28;20029;-86
2022/01/16 02:14:48;;;;;;;12.23;3.97;;;;;;;;;;5030252;28;20623;-86
2022/01/16 02:31:22;;;;;;;10.70;3.85;;;;;;;;;;5074730;28;20047;-86
2022/01/16 02:36:45;;;;;;;11.88;4.45;;;;;;;;;;5057503;28;20044;-86
2022/01/16 02:39:13;;;;;;;9.85;4.40;;;;;;;;;;5084277;28;20049;-86
2022/01/16 02:41:40;;;;;;;9.93;4.38;;;;;;;;;;5069587;28;20469;-86
2022/01/16 02:46:51;;;;;;;29.60;10.52;;;;;;;;;;5051251;28;20032;-86
2022/01/16 02:49:19;;;;;;;23.73;8.93;;;;;;;;;;5058934;27;20461;-87
2022/01/16 02:51:46;;;;;;;18.40;7.72;;;;;;;;;;5032335;28;20034;-86
2022/01/16 02:54:12;;;;;;;37.28;14.40;;;;;;;;;;5032359;28;20041;-87
2022/01/16 02:56:39;;;;;;;33.80;10.57;;;;;;;;;;5040015;27;20097;-85
2022/01/16 02:59:07;;;;;;;24.08;10.93;;;;;;;;;;5032241;28;20516;-84
2022/01/16 03:01:34;;;;;;;28.30;10.52;;;;;;;;;;5032357;28;20026;-86
2022/01/16 03:04:01;;;;;;;25.27;10.90;;;;;;;;;;5076114;27;20036;-84
2022/01/16 03:06:28;;;;;;;32.10;10.93;;;;;;;;;;5100242;27;20027;-86
2022/01/16 03:08:54;;;;;;;23.85;10.93;;;;;;;;;;5085724;27;20025;-85
2022/01/16 03:13:50;;;;;;;26.58;10.80;;;;;;;;;;5034168;27;20038;-85
2022/01/16 03:16:21;;;;;;;29.75;10.13;;;;;;;;;;5045086;27;20552;-87
2022/01/16 03:24:18;;;;;;;28.50;10.73;;;;;;;;;;5032072;27;20052;-88
2022/01/16 03:26:44;;;;;;;28.40;11.25;;;;;;;;;;5086500;27;20027;-86
2022/01/16 03:29:10;;;;;;;30.38;11.95;;;;;;;;;;5136277;27;20019;-86
2022/01/16 03:31:36;;;;;;;26.45;11.15;;;;;;;;;;5136277;27;20398;-85
2022/01/16 03:34:03;;;;;;;24.05;10.23;;;;;;;;;;5136261;27;20107;-85
2022/01/16 03:36:29;;;;;;;29.63;10.55;;;;;;;;;;5113026;27;20021;-86
2022/01/16 03:38:55;;;;;;;28.60;9.95;;;;;;;;;;5078213;27;20022;-86
2022/01/16 03:41:26;;;;;;;21.05;9.85;;;;;;;;;;5031650;28;20022;-86
2022/01/16 03:43:52;;;;;;;25.42;10.25;;;;;;;;;;5031490;28;20022;-87
2022/01/16 03:46:18;;;;;;;28.45;10.48;;;;;;;;;;5053354;27;20054;-85
2022/01/16 03:48:45;;;;;;;30.77;10.27;;;;;;;;;;5128233;27;20050;-85
2022/01/16 03:51:11;;;;;;;33.88;10.93;;;;;;;;;;5097939;27;20022;-86
2022/01/16 03:53:37;;;;;;;39.05;13.13;;;;;;;;;;5047039;27;20113;-86
2022/01/16 03:56:04;;;;;;;39.38;15.95;;;;;;;;;;5077245;27;20117;-85
2022/01/16 03:58:30;;;;;;;50.08;17.63;;;;;;;;;;5028337;28;20025;-86
2022/01/16 04:00:56;;;;;;;40.55;18.50;;;;;;;;;;4678015;28;9999797;-87
2022/01/16 04:03:23;;;;;;;41.90;17.67;;;;;;;;;;5030260;28;20021;-86
2022/01/16 04:05:49;;;;;;;40.33;16.88;;;;;;;;;;5030101;28;20029;-86
2022/01/16 04:08:15;;;;;;;45.47;16.52;;;;;;;;;;5031918;28;20027;-85
2022/01/16 04:10:42;;;;;;;38.90;15.88;;;;;;;;;;5030841;28;20356;-85
2022/01/16 04:13:08;;;;;;;35.28;14.80;;;;;;;;;;5031797;28;20030;-86
2022/01/16 04:15:35;;;;;;;45.47;15.35;;;;;;;;;;5034142;28;20021;-87
2022/01/16 04:18:02;;;;;;;45.97;18.13;;;;;;;;;;5014571;28;20059;-87
2022/01/16 04:20:29;;;;;;;48.13;17.73;;;;;;;;;;5010298;28;20030;-86
2022/01/16 04:22:55;;;;;;;52.15;18.98;;;;;;;;;;5028266;28;20140;-86
2022/01/16 04:25:21;;;;;;;41.45;17.08;;;;;;;;;;5030269;28;20539;-87
2022/01/16 04:27:48;;;;;;;29.98;15.38;;;;;;;;;;5024206;28;20055;-85
2022/01/16 04:30:14;;;;;;;36.85;15.13;;;;;;;;;;5030010;28;20041;-86
2022/01/16 04:32:41;;;;;;;34.95;15.75;;;;;;;;;;5029695;28;20057;-86
2022/01/16 04:35:07;;;;;;;39.47;17.13;;;;;;;;;;5030563;28;20028;-87
2022/01/16 04:37:33;;;;;;;45.08;17.40;;;;;;;;;;5031513;28;20053;-85
2022/01/16 04:40:01;;;;;;;46.67;19.15;;;;;;;;;;5014297;28;20570;-86
2022/01/16 04:45:13;;;;;;;39.60;14.75;;;;;;;;;;5031802;28;20102;-87
2022/01/16 04:47:39;;;;;;;30.60;12.93;;;;;;;;;;5028663;28;20121;-87
2022/01/16 04:50:06;;;;;;;32.17;13.55;;;;;;;;;;5029650;28;20760;-88
2022/01/16 04:52:32;;;;;;;27.80;10.57;;;;;;;;;;5029975;28;20041;-87
2022/01/16 04:54:59;;;;;;;27.33;9.73;;;;;;;;;;5027055;28;20033;-87
2022/01/16 04:57:25;;;;;;;24.13;9.02;;;;;;;;;;5028106;28;20029;-87
2022/01/16 04:59:51;;;;;;;24.88;9.40;;;;;;;;;;5028771;28;20029;-90
2022/01/16 05:02:18;;;;;;;30.92;11.88;;;;;;;;;;5032445;28;20025;-87
2022/01/16 05:04:44;;;;;;;33.03;13.10;;;;;;;;;;5028260;28;20049;-86
2022/01/16 05:07:10;;;;;;;35.05;13.88;;;;;;;;;;5031588;28;20017;-87
2022/01/16 05:09:36;;;;;;;48.03;19.15;;;;;;;;;;5030964;28;20082;-86
2022/01/16 05:12:10;;;;;;;53.42;20.17;;;;;;;;;;5028772;28;20762;-91
2022/01/16 05:17:21;;;;;;;48.40;19.15;;;;;;;;;;5030036;28;20067;-87
2022/01/16 05:19:47;;;;;;;47.75;19.52;;;;;;;;;;5029755;28;20025;-88
2022/01/16 05:22:13;;;;;;;49.28;19.63;;;;;;;;;;5030918;28;20420;-87
2022/01/16 05:24:40;;;;;;;40.83;19.33;;;;;;;;;;5029680;28;20079;-87
2022/01/16 05:27:07;;;;;;;46.28;20.75;;;;;;;;;;5030306;28;20071;-86
2022/01/16 05:29:33;;;;;;;54.83;20.08;;;;;;;;;;5029056;28;20486;-85
2022/01/16 05:31:59;;;;;;;51.40;19.67;;;;;;;;;;5028787;28;20140;-87
2022/01/16 05:34:26;;;;;;;52.17;21.27;;;;;;;;;;5031441;28;20034;-87
2022/01/16 05:36:52;;;;;;;43.00;19.48;;;;;;;;;;5042984;28;20031;-87
2022/01/16 05:39:19;;;;;;;46.03;21.73;;;;;;;;;;5083012;27;20096;-88
2022/01/16 05:41:45;;;;;;;45.75;20.33;;;;;;;;;;5018117;28;20094;-86
2022/01/16 05:44:11;;;;;;;50.92;21.63;;;;;;;;;;5030582;28;20025;-87
2022/01/16 05:46:38;;;;;;;43.35;18.50;;;;;;;;;;5028700;28;20120;-87
2022/01/16 05:49:04;;;;;;;45.47;18.90;;;;;;;;;;5023913;28;20021;-87
2022/01/16 05:51:30;;;;;;;47.75;20.88;;;;;;;;;;5026806;28;20026;-87
2022/01/16 05:53:57;;;;;;;51.53;22.27;;;;;;;;;;5028109;28;20510;-86
2022/01/16 05:56:23;;;;;;;59.38;23.10;;;;;;;;;;5029556;28;20524;-87
2022/01/16 05:58:53;;;;;;;53.35;21.13;;;;;;;;;;5030669;28;20078;-88
2022/01/16 06:01:19;;;;;;;49.78;21.42;;;;;;;;;;5030206;28;20056;-87
2022/01/16 06:03:45;;;;;;;50.72;19.90;;;;;;;;;;5030227;28;20379;-88
2022/01/16 06:06:12;;;;;;;80.68;36.13;;;;;;;;;;5031276;28;20029;-88
2022/01/16 06:08:38;;;;;;;97.47;39.72;;;;;;;;;;5030141;28;20025;-89
2022/01/16 06:11:05;;;;;;;88.13;37.75;;;;;;;;;;5031220;28;20053;-87
2022/01/16 06:13:31;;;;;;;80.78;36.08;;;;;;;;;;5061100;28;20039;-87
2022/01/16 06:15:57;;;;;;;81.82;35.15;;;;;;;;;;5134013;27;20426;-86
2022/01/16 06:18:23;;;;;;;79.85;32.42;;;;;;;;;;5133825;27;20023;-87
2022/01/16 06:20:50;;;;;;;76.90;32.67;;;;;;;;;;5120860;27;20122;-87
2022/01/16 06:23:16;;;;;;;73.95;31.88;;;;;;;;;;5129896;27;20388;-86
2022/01/16 06:25:44;;;;;;;68.18;28.02;;;;;;;;;;5033076;28;20147;-88
2022/01/16 06:28:11;;;;;;;66.60;28.67;;;;;;;;;;5032612;28;20041;-90
2022/01/16 06:30:37;;;;;;;71.70;29.20;;;;;;;;;;5032480;28;20124;-87
2022/01/16 06:33:06;;;;;;;67.32;26.08;;;;;;;;;;5033173;28;20040;-89
2022/01/16 06:35:32;;;;;;;50.80;22.17;;;;;;;;;;5033230;28;20467;-87
2022/01/16 06:37:58;;;;;;;55.50;25.55;;;;;;;;;;5032695;28;20057;-86
2022/01/16 06:40:25;;;;;;;78.57;33.10;;;;;;;;;;5033307;28;20032;-87
2022/01/16 06:42:52;;;;;;;86.00;36.20;;;;;;;;;;5032936;28;20030;-87
2022/01/16 06:45:19;;;;;;;79.43;36.38;;;;;;;;;;5032644;28;20412;-86
2022/01/16 06:47:45;;;;;;;72.45;33.42;;;;;;;;;;5032703;28;20475;-88
2022/01/16 06:50:11;;;;;;;78.88;30.10;;;;;;;;;;5033118;28;20049;-87
2022/01/16 06:52:38;;;;;;;70.72;28.25;;;;;;;;;;5033722;28;20021;-87
2022/01/16 06:55:04;;;;;;;73.05;28.27;;;;;;;;;;5032822;28;20033;-87
2022/01/16 06:57:31;;;;;;;58.55;26.70;;;;;;;;;;5026705;28;20025;-86
2022/01/16 06:59:57;;;;;;;63.00;27.52;;;;;;;;;;5032795;28;20026;-89
2022/01/16 07:02:23;;;;;;;55.10;23.90;;;;;;;;;;5032571;28;20025;-88
2022/01/16 07:04:49;;;;;;;56.33;23.23;;;;;;;;;;5032905;28;20112;-89
2022/01/16 07:07:16;;;;;;;52.42;20.30;;;;;;;;;;5032588;28;20021;-90
2022/01/16 07:09:43;;;;;;;50.60;17.98;;;;;;;;;;5032860;28;20379;-89
2022/01/16 07:12:09;;;;;;;44.25;19.35;;;;;;;;;;5033421;28;20025;-89
2022/01/16 07:14:35;;;;;;;53.08;20.75;;;;;;;;;;5032660;28;20479;-89
2022/01/16 07:17:02;;;;;;;41.00;17.63;;;;;;;;;;5032691;28;20029;-89
2022/01/16 07:19:28;;;;;;;37.10;16.10;;;;;;;;;;5032886;28;20022;-88
2022/01/16 07:21:55;;;;;;;44.78;15.73;;;;;;;;;;5032220;28;20467;-91
2022/01/16 07:24:22;;;;;;;41.67;15.32;;;;;;;;;;5032460;28;20025;-88
2022/01/16 07:26:48;;;;;;;44.05;15.02;;;;;;;;;;5033509;28;20078;-90
2022/01/16 07:29:14;;;;;;;35.47;12.93;;;;;;;;;;5032246;28;20056;-89
2022/01/16 07:31:41;;;;;;;38.97;13.00;;;;;;;;;;5032230;28;20050;-89
2022/01/16 07:34:08;;;;;;;37.08;10.90;;;;;;;;;;5032736;28;20042;-89
2022/01/16 07:36:34;;;;;;;27.33;10.20;;;;;;;;;;5032429;28;20025;-87
2022/01/16 07:39:01;;;;;;;30.08;10.30;;;;;;;;;;5032442;28;20032;-88
2022/01/16 07:41:27;;;;;;;33.70;10.48;;;;;;;;;;5033544;28;20151;-89
2022/01/16 07:43:53;;;;;;;31.17;10.40;;;;;;;;;;5032193;28;20089;-89
2022/01/16 07:46:20;;;;;;;26.65;8.93;;;;;;;;;;5032512;28;20033;-90
2022/01/16 07:48:46;;;;;;;35.63;10.25;;;;;;;;;;5032371;28;20088;-90
2022/01/16 07:51:12;;;;;;;34.65;13.93;;;;;;;;;;5032273;28;20128;-88
2022/01/16 07:53:38;;;;;;;37.55;15.18;;;;;;;;;;5032174;28;20033;-88
2022/01/16 07:56:05;;;;;;;38.75;15.82;;;;;;;;;;5031524;28;20468;-88
2022/01/16 07:58:31;;;;;;;36.45;14.75;;;;;;;;;;5032003;28;20022;-89
2022/01/16 08:00:57;;;;;;;29.52;12.35;;;;;;;;;;5031776;27;20029;-88
2022/01/16 08:03:24;;;;;;;24.85;11.57;;;;;;;;;;5031521;28;20033;-89
2022/01/16 08:05:50;;;;;;;29.05;11.70;;;;;;;;;;5032005;28;20140;-90
2022/01/16 08:08:17;;;;;;;29.42;9.63;;;;;;;;;;5032071;28;20082;-90
2022/01/16 08:10:43;;;;;;;27.17;7.80;;;;;;;;;;5039116;28;20033;-89
2022/01/16 08:13:09;;;;;;;19.48;4.20;;;;;;;;;;5031524;28;20064;-91
2022/01/16 08:15:36;;;;;;;21.30;4.65;;;;;;;;;;5031772;28;20029;-90
2022/01/16 08:18:02;;;;;;;20.48;4.38;;;;;;;;;;5031623;28;20032;-89
2022/01/16 08:20:28;;;;;;;22.90;3.70;;;;;;;;;;5031614;28;20033;-91
2022/01/16 08:22:55;;;;;;;18.95;4.75;;;;;;;;;;5031551;28;20025;-90
2022/01/16 08:25:21;;;;;;;20.25;6.28;;;;;;;;;;5031861;28;20082;-91
2022/01/16 08:27:48;;;;;;;30.05;5.95;;;;;;;;;;5031397;28;20025;-91
2022/01/16 08:30:14;;;;;;;15.23;4.72;;;;;;;;;;5031770;28;20112;-89
2022/01/16 08:32:43;;;;;;;19.83;4.63;;;;;;;;;;5000097;28;20388;-90
2022/01/16 08:35:10;;;;;;;16.00;3.95;;;;;;;;;;4991656;28;20026;-90
2022/01/16 08:37:36;;;;;;;16.58;4.45;;;;;;;;;;4988431;28;20271;-90
2022/01/16 08:40:04;;;;;;;20.77;6.82;;;;;;;;;;5007919;28;20392;-91
2022/01/16 08:42:31;;;;;;;22.15;7.15;;;;;;;;;;4991864;28;20491;-89
2022/01/16 08:44:57;;;;;;;20.90;7.10;;;;;;;;;;4991967;28;20064;-90
2022/01/16 08:47:23;;;;;;;22.83;7.50;;;;;;;;;;4991943;28;20034;-91
2022/01/16 08:49:50;;;;;;;20.67;6.25;;;;;;;;;;4992232;28;20029;-90
2022/01/16 08:52:31;;;;;;;23.13;7.95;;;;;;;;;;4991093;28;20034;-89
2022/01/16 08:54:57;;;;;;;25.05;6.35;;;;;;;;;;4991294;28;20084;-90
2022/01/16 08:57:23;;;;;;;20.25;5.70;;;;;;;;;;5007717;28;20077;-90
2022/01/16 08:59:49;;;;;;;18.40;5.18;;;;;;;;;;5075439;28;20026;-90
2022/01/16 09:02:16;;;;;;;16.10;5.07;;;;;;;;;;4993711;28;20525;-89
2022/01/16 09:04:42;;;;;;;25.40;5.10;;;;;;;;;;4991238;28;20030;-88
2022/01/16 09:07:08;;;;;;;21.63;6.82;;;;;;;;;;4991736;28;20018;-89
2022/01/16 09:09:35;;;;;;;23.23;8.15;;;;;;;;;;4991031;28;20033;-89
2022/01/16 09:12:01;;;;;;;23.58;8.13;;;;;;;;;;4994344;28;20031;-91
2022/01/16 09:14:28;;;;;;;20.85;7.00;;;;;;;;;;4991174;28;20051;-90
2022/01/16 09:16:57;;;;;;;15.30;5.70;;;;;;;;;;5000261;28;20022;-91
2022/01/16 09:19:23;;;;;;;22.60;6.20;;;;;;;;;;4990898;28;20026;-88
2022/01/16 09:21:50;;;;;;;20.95;5.45;;;;;;;;;;5011032;28;20056;-92
2022/01/16 09:24:16;;;;;;;20.50;4.35;;;;;;;;;;4993814;28;20481;-91
2022/01/16 09:26:42;;;;;;;20.05;4.63;;;;;;;;;;4991500;28;20105;-89
2022/01/16 09:29:09;;;;;;;13.00;4.18;;;;;;;;;;5009154;28;20107;-91
2022/01/16 09:31:35;;;;;;;20.33;5.07;;;;;;;;;;4990628;28;20058;-90
2022/01/16 09:34:01;;;;;;;20.15;5.00;;;;;;;;;;4990364;28;20034;-89
2022/01/16 09:36:31;;;;;;;27.35;6.95;;;;;;;;;;4991272;28;20034;-90
2022/01/16 09:38:57;;;;;;;22.08;6.65;;;;;;;;;;4991650;28;20037;-92
2022/01/16 09:41:23;;;;;;;23.17;6.40;;;;;;;;;;5044425;28;20101;-91
2022/01/16 09:43:50;;;;;;;19.90;4.78;;;;;;;;;;4990269;28;20038;-90
2022/01/16 09:46:16;;;;;;;17.35;4.88;;;;;;;;;;5006596;28;20392;-89
2022/01/16 09:48:43;;;;;;;20.17;5.28;;;;;;;;;;4990544;28;20472;-90
2022/01/16 09:51:10;;;;;;;28.65;5.28;;;;;;;;;;4992027;28;20113;-89
2022/01/16 09:53:36;;;;;;;28.52;5.32;;;;;;;;;;4990682;28;20057;-90
2022/01/16 09:56:03;;;;;;;20.20;5.63;;;;;;;;;;4989789;28;20032;-90
2022/01/16 09:58:29;;;;;;;25.27;4.82;;;;;;;;;;4990640;28;20018;-89
2022/01/16 10:00:55;;;;;;;24.40;5.38;;;;;;;;;;4986088;28;20027;-90
2022/01/16 10:03:37;;;;;;;28.73;5.18;;;;;;;;;;4972008;28;20049;-91
2022/01/16 10:06:12;;;;;;;27.35;5.60;;;;;;;;;;4970896;28;20027;-91
2022/01/16 10:08:43;;;;;;;34.20;5.65;;;;;;;;;;4987692;28;20105;-92
2022/01/16 10:11:22;;;;;;;26.65;6.75;;;;;;;;;;5015052;28;20031;-91
2022/01/16 10:14:08;;;;;;;22.63;5.55;;;;;;;;;;4971114;28;20027;-89
2022/01/16 10:16:38;;;;;;;27.70;6.15;;;;;;;;;;4980624;28;20027;-92
2022/01/16 10:19:18;;;;;;;26.30;5.80;;;;;;;;;;5006707;28;20014;-92
2022/01/16 10:21:44;;;;;;;19.20;5.60;;;;;;;;;;4980894;28;20031;-90
2022/01/16 10:24:21;;;;;;;33.33;6.50;;;;;;;;;;4970836;28;20027;-90
2022/01/16 10:26:48;;;;;;;26.45;7.10;;;;;;;;;;4980306;28;20031;-93
2022/01/16 10:29:15;;;;;;;25.40;7.72;;;;;;;;;;4990366;28;20034;-92
2022/01/16 10:31:42;;;;;;;28.77;8.93;;;;;;;;;;4990236;28;20058;-92
2022/01/16 10:34:25;;;;;;;29.83;8.00;;;;;;;;;;4990105;28;20022;-93
2022/01/16 10:36:51;;;;;;;27.90;8.00;;;;;;;;;;4990443;28;20079;-90
2022/01/16 10:39:18;;;;;;;41.65;8.60;;;;;;;;;;4991262;28;20491;-90
2022/01/16 10:41:44;;;;;;;32.42;8.63;;;;;;;;;;4990036;28;20113;-90
2022/01/16 10:44:27;;;;;;;39.30;7.18;;;;;;;;;;4990057;28;20460;-91
2022/01/16 10:46:53;;;;;;;38.25;8.88;;;;;;;;;;4990001;28;20485;-91
2022/01/16 10:49:20;;;;;;;31.75;8.02;;;;;;;;;;4990011;28;20370;-89
2022/01/16 10:52:03;;;;;;;41.50;7.93;;;;;;;;;;4990181;28;20018;-92
2022/01/16 10:54:40;;;;;;;46.83;9.05;;;;;;;;;;5005964;28;20445;-91
2022/01/16 10:57:20;;;;;;;47.55;8.05;;;;;;;;;;5006762;28;20182;-90
2022/01/16 10:59:47;;;;;;;40.28;7.72;;;;;;;;;;5006075;28;20637;-90
2022/01/16 11:02:13;;;;;;;42.75;7.03;;;;;;;;;;5005797;28;20469;-91
2022/01/16 11:04:40;;;;;;;52.67;7.85;;;;;;;;;;4989616;28;20030;-90
2022/01/16 11:07:07;;;;;;;61.67;8.95;;;;;;;;;;4990072;28;20065;-91
2022/01/16 11:09:33;;;;;;;54.47;9.68;;;;;;;;;;4991749;28;20058;-91
2022/01/16 11:12:00;;;;;;;57.88;10.75;;;;;;;;;;4992953;28;20074;-91
2022/01/16 11:14:27;;;;;;;59.75;11.15;;;;;;;;;;4993205;28;20034;-91
2022/01/16 11:16:55;;;;;;;75.88;14.32;;;;;;;;;;4993969;28;20026;-90
2022/01/16 11:19:23;;;;;;;72.43;13.07;;;;;;;;;;4993135;28;20029;-90
2022/01/16 11:21:54;;;;;;;69.65;12.80;;;;;;;;;;4992979;28;20044;-92
2022/01/16 11:24:46;;;;;;;58.72;12.43;;;;;;;;;;4992919;28;20038;-92
2022/01/16 11:27:14;;;;;;;63.60;11.63;;;;;;;;;;4992746;28;20037;-90
2022/01/16 11:29:41;;;;;;;61.10;11.43;;;;;;;;;;4992445;28;20027;-91
2022/01/16 11:32:08;;;;;;;49.47;11.70;;;;;;;;;;4992770;28;20145;-89
2022/01/16 11:34:35;;;;;;;62.97;10.98;;;;;;;;;;4993865;28;20491;-89
2022/01/16 11:37:02;;;;;;;59.35;10.90;;;;;;;;;;4992672;28;20030;-90
2022/01/16 11:39:39;;;;;;;52.80;11.32;;;;;;;;;;4986308;28;20031;-90
2022/01/16 11:42:15;;;;;;;49.65;10.15;;;;;;;;;;4986635;28;20050;-90
2022/01/16 11:44:50;;;;;;;46.10;9.13;;;;;;;;;;4992673;28;20026;-90
2022/01/16 11:47:16;;;;;;;59.28;9.80;;;;;;;;;;4992969;28;20110;-89
2022/01/16 11:49:43;;;;;;;65.90;11.13;;;;;;;;;;4992657;28;20027;-91
2022/01/16 11:52:16;;;;;;;55.78;10.63;;;;;;;;;;4646815;28;10000547;-91
2022/01/16 11:54:44;;;;;;;63.08;9.20;;;;;;;;;;4993827;28;20027;-91
2022/01/16 11:57:22;;;;;;;64.38;9.65;;;;;;;;;;5008768;28;20034;-92
2022/01/16 11:59:50;;;;;;;43.80;8.90;;;;;;;;;;4992550;28;20038;-91
2022/01/16 12:02:18;;;;;;;64.82;10.80;;;;;;;;;;4992743;28;20101;-91
2022/01/16 12:04:44;;;;;;;55.88;11.00;;;;;;;;;;4992300;28;20024;-91
2022/01/16 12:07:15;;;;;;;58.35;13.20;;;;;;;;;;4992550;28;20054;-91
2022/01/16 12:12:16;;;;;;;68.78;16.38;;;;;;;;;;4992249;28;20175;-91
2022/01/16 12:15:00;;;;;;;85.22;21.80;;;;;;;;;;4991237;28;20086;-92
2022/01/16 12:17:27;;;;;;;82.22;24.83;;;;;;;;;;4984948;28;20058;-90
2022/01/16 12:19:55;;;;;;;74.55;20.60;;;;;;;;;;4991889;28;20494;-90
2022/01/16 12:22:43;;;;;;;77.97;19.77;;;;;;;;;;4992537;28;20109;-90
2022/01/16 12:25:16;;;;;;;79.43;19.95;;;;;;;;;;4987726;28;20037;-90
2022/01/16 12:27:44;;;;;;;76.47;20.83;;;;;;;;;;4990637;28;20037;-91
2022/01/16 12:30:12;;;;;;;89.40;21.75;;;;;;;;;;4989400;28;20029;-91
2022/01/16 12:32:57;;;;;;;71.75;22.10;;;;;;;;;;4991678;28;20050;-91
2022/01/16 12:35:45;;;;;;;88.07;25.23;;;;;;;;;;4995791;28;20128;-91
2022/01/16 12:38:13;;;;;;;92.90;25.05;;;;;;;;;;5015424;28;20513;-91
2022/01/16 12:40:40;;;;;;;85.38;22.55;;;;;;;;;;4991718;28;20058;-90
2022/01/16 12:43:13;;;;;;;100.93;31.90;;;;;;;;;;5001471;28;20026;-91
2022/01/16 12:45:40;;;;;;;98.03;31.60;;;;;;;;;;5004233;28;20088;-91
2022/01/16 12:48:07;;;;;;;85.72;26.67;;;;;;;;;;5005094;28;20508;-91
2022/01/16 12:50:33;;;;;;;98.13;28.75;;;;;;;;;;5049625;28;20069;-91
2022/01/16 12:53:00;;;;;;;91.70;26.13;;;;;;;;;;5088156;28;20020;-91
2022/01/16 12:55:27;;;;;;;96.20;28.48;;;;;;;;;;4991777;28;20033;-91
2022/01/16 12:57:53;;;;;;;102.20;32.85;;;;;;;;;;4991600;28;20508;-91
2022/01/16 13:00:19;;;;;;;110.88;31.50;;;;;;;;;;4992082;28;20117;-91
2022/01/16 13:02:52;;;;;;;97.72;28.35;;;;;;;;;;4991862;28;20556;-91
2022/01/16 13:05:22;;;;;;;85.30;26.73;;;;;;;;;;4992852;28;20027;-91
2022/01/16 13:07:48;;;;;;;89.35;27.15;;;;;;;;;;4991666;28;20037;-91
2022/01/16 13:10:14;;;;;;;88.18;25.73;;;;;;;;;;4991842;28;20023;-91
2022/01/16 13:12:41;;;;;;;93.18;26.85;;;;;;;;;;4995728;28;20024;-92
2022/01/16 13:15:07;;;;;;;80.03;24.20;;;;;;;;;;4985876;28;20037;-91
2022/01/16 13:17:34;;;;;;;87.75;24.10;;;;;;;;;;4988282;28;20495;-90
2022/01/16 13:20:02;;;;;;;89.20;27.42;;;;;;;;;;4975481;28;20410;-90
2022/01/16 13:22:30;;;;;;;89.18;28.67;;;;;;;;;;4981704;28;20376;-90
2022/01/16 13:25:03;;;;;;;110.22;32.40;;;;;;;;;;4984496;28;20023;-89
2022/01/16 13:27:34;;;;;;;92.32;28.20;;;;;;;;;;4991470;28;20033;-91
2022/01/16 13:30:11;;;;;;;81.95;26.10;;;;;;;;;;4991279;28;20121;-91
2022/01/16 13:32:38;;;;;;;76.00;19.25;;;;;;;;;;4990458;28;20196;-90
2022/01/16 13:35:23;;;;;;;66.65;17.38;;;;;;;;;;4991893;28;20026;-90
2022/01/16 13:37:56;;;;;;;80.28;17.20;;;;;;;;;;4980275;28;20080;-90
2022/01/16 13:40:24;;;;;;;66.10;17.95;;;;;;;;;;4992320;28;20040;-91
2022/01/16 13:45:32;;;;;;;54.55;14.23;;;;;;;;;;4988170;28;20368;-91
2022/01/16 13:47:58;;;;;;;58.45;15.90;;;;;;;;;;4974296;28;20026;-90
2022/01/16 13:50:26;;;;;;;53.67;12.88;;;;;;;;;;4990870;28;20026;-92
2022/01/16 13:52:57;;;;;;;45.45;13.25;;;;;;;;;;4991265;28;20486;-90
2022/01/16 13:55:24;;;;;;;50.45;12.82;;;;;;;;;;4977913;28;20470;-91
2022/01/16 13:57:51;;;;;;;57.50;13.18;;;;;;;;;;4987099;28;20087;-90
2022/01/16 14:00:21;;;;;;;58.45;13.07;;;;;;;;;;4990069;28;20034;-90
2022/01/16 14:02:47;;;;;;;75.13;17.48;;;;;;;;;;4990017;28;20248;-91
2022/01/16 14:05:24;;;;;;;69.13;18.05;;;;;;;;;;4990874;28;20091;-90
2022/01/16 14:07:50;;;;;;;80.07;18.95;;;;;;;;;;4992132;28;20027;-93
2022/01/16 14:10:38;;;;;;;60.92;17.73;;;;;;;;;;4990443;28;20052;-91
2022/01/16 14:13:07;;;;;;;69.80;18.58;;;;;;;;;;4990551;28;20026;-90
2022/01/16 14:15:34;;;;;;;86.40;21.90;;;;;;;;;;4990423;28;20022;-90
2022/01/16 14:18:13;;;;;;;83.30;20.77;;;;;;;;;;4990599;28;20026;-89
2022/01/16 14:20:50;;;;;;;66.82;17.73;;;;;;;;;;4990989;28;20018;-92
2022/01/16 14:23:17;;;;;;;70.80;19.50;;;;;;;;;;4990656;28;20035;-91
2022/01/16 14:25:44;;;;;;;69.70;20.27;;;;;;;;;;4991633;28;20068;-91
2022/01/16 14:28:10;;;;;;;73.40;19.08;;;;;;;;;;4990509;28;20018;-92
2022/01/16 14:30:37;;;;;;;75.70;20.35;;;;;;;;;;4990592;28;20092;-89
2022/01/16 14:33:03;;;;;;;69.63;19.65;;;;;;;;;;4990431;28;20029;-91
2022/01/16 14:35:29;;;;;;;79.05;19.60;;;;;;;;;;4988758;28;20045;-91
2022/01/16 14:37:56;;;;;;;73.43;18.83;;;;;;;;;;4988829;28;20035;-91
2022/01/16 14:40:22;;;;;;;66.90;17.83;;;;;;;;;;4990607;28;20045;-91
2022/01/16 14:42:57;;;;;;;65.28;17.58;;;;;;;;;;4990887;28;20716;-91
2022/01/16 14:45:23;;;;;;;66.43;17.92;;;;;;;;;;4986244;28;20038;-91
2022/01/16 14:47:50;;;;;;;70.63;15.45;;;;;;;;;;4993917;28;20043;-92
2022/01/16 14:50:21;;;;;;;53.42;14.45;;;;;;;;;;4994142;28;20125;-91
2022/01/16 14:52:48;;;;;;;52.55;13.73;;;;;;;;;;4994128;28;20048;-90
2022/01/16 14:55:16;;;;;;;63.90;15.80;;;;;;;;;;4984552;28;20039;-90
2022/01/16 14:57:42;;;;;;;59.42;15.48;;;;;;;;;;4974350;28;20029;-91
2022/01/16 15:00:09;;;;;;;62.88;14.68;;;;;;;;;;4973845;28;20115;-90
2022/01/16 15:02:37;;;;;;;59.38;14.88;;;;;;;;;;4988521;28;20556;-90
2022/01/16 15:05:04;;;;;;;45.72;12.48;;;;;;;;;;4993586;28;20038;-92
2022/01/16 15:07:30;;;;;;;77.53;16.83;;;;;;;;;;4994849;28;20026;-90
2022/01/16 15:09:56;;;;;;;56.10;14.80;;;;;;;;;;4977374;28;20032;-90
2022/01/16 15:12:22;;;;;;;57.92;16.70;;;;;;;;;;4984303;28;20076;-90
2022/01/16 15:14:49;;;;;;;64.10;14.20;;;;;;;;;;4988198;28;20088;-91
2022/01/16 15:17:15;;;;;;;58.15;12.75;;;;;;;;;;4993473;28;20106;-91